Time;durP1;ratioP1;P1;durP2;ratioP2;P2;SDS_P1;SDS_P2;PMS_P1;PMS_P2;Temp;Humidity;BMP_temperature;BMP_pressure;BME280_temperature;BME280_humidity;BME280_pressure;Samples;Min_cycle;Max_cycle;Signal;HPM_P1;HPM_P2
2022/12/11 00:02:09;;;;;;;;;;;;;;;5.17;76.80;96560.19;4456243;32;20001;-83
2022/12/11 00:04:34;;;;;;;;;;;;;;;5.18;76.74;96556.63;4456276;32;20248;-82
2022/12/11 00:06:59;;;;;;;;;;;;;;;5.13;76.20;96549.09;4454014;32;20215;-83
2022/12/11 00:09:25;;;;;;;;;;;;;;;5.12;76.82;96544.84;4456348;32;20015;-82
2022/12/11 00:11:50;;;;;;;;;;;;;;;4.81;77.37;96554.75;4442341;32;20339;-83
2022/12/11 00:14:15;;;;;;;;;;;;;;;4.40;79.24;96544.44;4456453;32;19965;-82
2022/12/11 00:16:41;;;;;;;;;;;;;;;4.53;78.35;96535.72;4456359;32;20257;-83
2022/12/11 00:19:06;;;;;;;;;;;;;;;4.18;80.31;96555.44;4455300;32;19996;-83
2022/12/11 00:21:32;;;;;;;;;;;;;;;4.21;80.20;96544.81;4455159;32;19984;-82
2022/12/11 00:23:57;;;;;;;;;;;;;;;4.28;80.21;96535.66;4456350;32;19965;-82
2022/12/11 00:26:22;;;;;;;;;;;;;;;4.42;79.85;96546.00;4456327;32;20215;-82
2022/12/11 00:28:50;;;;;;;;;;;;;;;4.62;78.07;96542.09;4456422;32;19992;-82
2022/12/11 00:31:16;;;;;;;;;;;;;;;4.07;79.89;96540.50;4455147;32;20339;-82
2022/12/11 00:33:42;;;;;;;;;;;;;;;4.51;78.36;96534.16;4455252;32;19985;-83
2022/12/11 00:36:12;;;;;;;;;;;;;;;4.57;77.92;96541.56;4455065;32;20215;-82
2022/12/11 00:38:37;;;;;;;;;;;;;;;4.56;77.06;96539.91;4455158;32;20000;-82
2022/12/11 00:41:02;;;;;;;;;;;;;;;4.31;78.06;96536.31;4456246;32;19973;-82
2022/12/11 00:43:27;;;;;;;;;;;;;;;4.31;79.03;96538.09;4456189;32;19991;-82
2022/12/11 00:45:52;;;;;;;;;;;;;;;4.70;76.98;96524.16;4456153;32;19977;-82
2022/12/11 00:48:18;;;;;;;;;;;;;;;4.40;78.12;96536.62;4454943;32;20000;-82
2022/12/11 00:50:43;;;;;;;;;;;;;;;4.37;78.19;96532.47;4455036;32;20356;-82
2022/12/11 00:53:08;;;;;;;;;;;;;;;4.13;79.17;96540.94;4456203;32;19977;-82
2022/12/11 00:55:37;;;;;;;;;;;;;;;4.26;77.44;96534.94;4456050;32;20025;-82
2022/12/11 00:58:03;;;;;;;;;;;;;;;4.25;78.38;96544.53;4454978;32;20394;-82
2022/12/11 01:00:28;;;;;;;;;;;;;;;4.18;78.28;96545.03;4456245;32;19973;-81
2022/12/11 01:02:53;;;;;;;;;;;;;;;3.93;78.95;96536.19;4441824;32;19973;-81
2022/12/11 01:05:18;;;;;;;;;;;;;;;4.00;78.57;96536.59;4455967;32;20332;-81
2022/12/11 01:07:44;;;;;;;;;;;;;;;3.99;78.65;96547.97;4456013;32;20288;-81
2022/12/11 01:10:25;;;;;;;;;;;;;;;3.82;79.27;96534.25;4454736;32;19985;-81
2022/12/11 01:12:51;;;;;;;;;;;;;;;3.88;80.63;96533.03;4454998;32;20043;-81
2022/12/11 01:15:17;;;;;;;;;;;;;;;4.22;78.11;96533.47;4454786;32;20018;-82
2022/12/11 01:17:42;;;;;;;;;;;;;;;3.82;79.41;96546.44;4455752;32;20313;-81
2022/12/11 01:20:08;;;;;;;;;;;;;;;3.86;79.85;96553.12;4455846;32;19984;-81
2022/12/11 01:22:33;;;;;;;;;;;;;;;3.99;78.16;96551.41;4454140;32;19973;-81
2022/12/11 01:24:58;;;;;;;;;;;;;;;4.08;77.35;96548.22;4455805;32;19984;-81
2022/12/11 01:27:24;;;;;;;;;;;;;;;3.76;78.50;96541.63;4454704;32;20016;-81
2022/12/11 01:29:49;;;;;;;;;;;;;;;4.01;77.51;96549.53;4454602;32;19989;-81
2022/12/11 01:32:15;;;;;;;;;;;;;;;3.62;79.63;96552.91;4455713;32;20203;-81
2022/12/11 01:34:40;;;;;;;;;;;;;;;3.87;77.76;96555.63;4454474;32;20003;-81
2022/12/11 01:37:05;;;;;;;;;;;;;;;3.32;79.67;96549.50;4454483;32;19985;-81
2022/12/11 01:39:31;;;;;;;;;;;;;;;3.73;78.12;96555.69;4455629;32;20388;-81
2022/12/11 01:41:59;;;;;;;;;;;;;;;3.70;78.65;96561.91;4454366;32;20004;-81
2022/12/11 01:44:25;;;;;;;;;;;;;;;3.47;78.75;96552.09;4455437;32;19969;-81
2022/12/11 01:46:50;;;;;;;;;;;;;;;3.48;78.77;96549.41;4455141;32;19997;-80
2022/12/11 01:49:16;;;;;;;;;;;;;;;3.29;79.92;96541.88;4455233;32;19996;-81
2022/12/11 01:51:44;;;;;;;;;;;;;;;3.45;79.64;96544.38;4454001;32;20264;-81
2022/12/11 01:54:11;;;;;;;;;;;;;;;3.74;77.53;96552.12;4453918;32;20008;-82
2022/12/11 01:56:36;;;;;;;;;;;;;;;3.55;77.53;96549.84;4453893;32;20299;-82
2022/12/11 01:59:06;;;;;;;;;;;;;;;3.45;78.59;96552.19;4455039;32;19985;-82
2022/12/11 02:01:33;;;;;;;;;;;;;;;3.41;77.91;96589.75;4453834;32;19973;-82
2022/12/11 02:03:58;;;;;;;;;;;;;;;2.91;79.47;96560.62;4453814;32;20250;-82
2022/12/11 02:06:34;;;;;;;;;;;;;;;3.16;78.94;96564.37;4454994;32;20027;-82
2022/12/11 02:08:59;;;;;;;;;;;;;;;2.83;80.27;96554.22;4453868;32;20455;-81
2022/12/11 02:11:26;;;;;;;;;;;;;;;2.59;80.40;96554.75;4453740;32;20029;-81
2022/12/11 02:13:54;;;;;;;;;;;;;;;2.65;81.02;96544.00;4453724;32;20034;-81
2022/12/11 02:16:28;;;;;;;;;;;;;;;2.54;81.47;96547.22;4453581;32;19985;-82
2022/12/11 02:19:12;;;;;;;;;;;;;;;2.61;80.45;96536.44;4440707;32;20312;-82
2022/12/11 02:21:40;;;;;;;;;;;;;;;2.46;81.72;96544.22;4454622;32;19969;-82
2022/12/11 02:24:08;;;;;;;;;;;;;;;2.37;80.98;96552.53;4454517;32;20443;-82
2022/12/11 02:26:33;;;;;;;;;;;;;;;2.61;80.06;96560.69;4454693;32;19991;-82
2022/12/11 02:29:00;;;;;;;;;;;;;;;2.68;78.80;96554.19;4454758;32;19981;-83
2022/12/11 02:31:26;;;;;;;;;;;;;;;2.84;79.57;96556.75;4442777;32;19973;-83
2022/12/11 02:33:58;;;;;;;;;;;;;;;2.61;80.42;96558.09;4455787;32;19965;-83
2022/12/11 02:36:23;;;;;;;;;;;;;;;2.62;80.40;96548.53;4455657;32;20001;-81
2022/12/11 02:38:49;;;;;;;;;;;;;;;2.72;79.65;96547.06;4455693;32;20003;-81
2022/12/11 02:41:14;;;;;;;;;;;;;;;2.63;80.26;96538.06;4456805;32;19995;-81
2022/12/11 02:43:40;;;;;;;;;;;;;;;2.44;80.29;96537.47;4456805;32;19977;-80
2022/12/11 02:46:05;;;;;;;;;;;;;;;2.44;81.04;96537.47;4456768;32;20280;-81
2022/12/11 02:48:30;;;;;;;;;;;;;;;2.42;81.17;96537.53;4455688;32;20029;-81
2022/12/11 02:50:56;;;;;;;;;;;;;;;2.19;81.79;96538.03;4456778;32;20351;-81
2022/12/11 02:53:22;;;;;;;;;;;;;;;2.14;81.52;96540.87;4455568;32;19965;-82
2022/12/11 02:55:49;;;;;;;;;;;;;;;2.35;81.41;96529.25;4456694;32;19995;-82
2022/12/11 02:58:18;;;;;;;;;;;;;;;2.08;82.15;96520.44;4456822;32;20262;-81
2022/12/11 03:00:44;;;;;;;;;;;;;;;2.21;81.86;96531.81;4455549;32;19992;-81
2022/12/11 03:03:09;;;;;;;;;;;;;;;2.21;81.84;96526.63;4455455;32;19973;-81
2022/12/11 03:05:35;;;;;;;;;;;;;;;2.01;81.91;96526.91;4455557;32;19985;-81
2022/12/11 03:08:00;;;;;;;;;;;;;;;2.17;81.74;96525.94;4456759;32;19984;-80
2022/12/11 03:10:25;;;;;;;;;;;;;;;2.02;82.33;96524.22;4456685;32;19991;-81
2022/12/11 03:12:51;;;;;;;;;;;;;;;2.26;81.75;96514.22;4456723;32;20239;-81
2022/12/11 03:15:17;;;;;;;;;;;;;;;2.13;81.89;96515.84;4456587;32;19981;-81
2022/12/11 03:17:43;;;;;;;;;;;;;;;1.94;82.99;96495.28;4455469;32;19976;-81
2022/12/11 03:20:28;;;;;;;;;;;;;;;2.17;82.24;96499.16;4456565;32;19984;-81
2022/12/11 03:22:56;;;;;;;;;;;;;;;1.94;82.98;96509.09;4456396;32;20034;-81
2022/12/11 03:25:22;;;;;;;;;;;;;;;2.01;82.84;96516.53;4455417;32;19993;-81
2022/12/11 03:27:57;;;;;;;;;;;;;;;2.39;81.37;96505.69;4442479;32;20007;-81
2022/12/11 03:30:23;;;;;;;;;;;;;;;2.28;81.50;96514.09;4455388;32;19981;-81
2022/12/11 03:32:59;;;;;;;;;;;;;;;2.20;81.07;96521.50;4455308;32;19988;-81
2022/12/11 03:35:41;;;;;;;;;;;;;;;2.20;81.46;96529.28;4455308;32;19996;-81
2022/12/11 03:38:07;;;;;;;;;;;;;;;2.07;82.48;96519.63;4455428;32;20049;-81
2022/12/11 03:40:33;;;;;;;;;;;;;;;2.10;82.12;96523.78;4455239;32;19999;-81
2022/12/11 03:42:58;;;;;;;;;;;;;;;2.36;81.27;96510.16;4455076;32;20020;-81
2022/12/11 03:45:23;;;;;;;;;;;;;;;2.24;80.89;96523.00;4455177;32;20004;-81
2022/12/11 03:47:48;;;;;;;;;;;;;;;2.27;81.58;96520.25;4442543;32;19995;-81
2022/12/11 03:50:14;;;;;;;;;;;;;;;2.21;81.03;96525.78;4455523;32;20000;-82
2022/12/11 03:52:40;;;;;;;;;;;;;;;2.09;81.69;96528.16;4455400;32;20295;-82
2022/12/11 03:55:06;;;;;;;;;;;;;;;2.12;81.66;96519.34;4455523;32;19997;-82
2022/12/11 03:57:32;;;;;;;;;;;;;;;1.83;82.94;96527.03;4455442;32;20007;-81
2022/12/11 03:59:57;;;;;;;;;;;;;;;1.97;82.51;96523.66;4455328;32;19981;-81
2022/12/11 04:02:22;;;;;;;;;;;;;;;1.96;81.96;96520.22;4442010;32;19988;-80
2022/12/11 04:04:47;;;;;;;;;;;;;;;2.36;81.17;96532.69;4455168;32;19981;-80
2022/12/11 04:07:13;;;;;;;;;;;;;;;2.16;81.42;96531.22;4456251;32;19969;-80
2022/12/11 04:09:38;;;;;;;;;;;;;;;2.06;81.82;96528.31;4456235;32;19991;-80
2022/12/11 04:12:03;;;;;;;;;;;;;;;1.86;83.12;96547.63;4456033;32;19974;-80
2022/12/11 04:24:13;;;;;;;;;;;;;;;1.85;82.78;96539.91;4455450;32;19995;-80
2022/12/11 04:25:26;;;;;;;;;;;;;;;1.91;82.89;96550.81;4456210;32;20008;-80
2022/12/11 04:27:51;;;;;;;;;;;;;;;1.68;83.85;96546.91;4456137;32;19977;-81
2022/12/11 04:30:18;;;;;;;;;;;;;;;1.67;84.85;96544.38;4454773;32;19985;-81
2022/12/11 04:32:43;;;;;;;;;;;;;;;1.67;83.93;96552.16;4456137;32;20046;-80
2022/12/11 04:35:09;;;;;;;;;;;;;;;1.59;84.15;96567.31;4455980;32;19973;-80
2022/12/11 04:37:34;;;;;;;;;;;;;;;1.43;84.79;96557.78;4454950;32;20280;-80
2022/12/11 04:39:59;;;;;;;;;;;;;;;1.77;83.95;96559.34;4456101;32;19997;-81
2022/12/11 04:42:25;;;;;;;;;;;;;;;1.82;83.25;96576.44;4454676;32;19965;-80
2022/12/11 04:44:50;;;;;;;;;;;;;;;1.83;83.78;96575.50;4454737;32;20314;-81
2022/12/11 04:47:15;;;;;;;;;;;;;;;1.91;83.24;96575.91;4456126;32;19989;-80
2022/12/11 04:49:41;;;;;;;;;;;;;;;1.79;83.00;96577.44;4454737;32;20014;-81
2022/12/11 04:52:06;;;;;;;;;;;;;;;1.75;83.74;96594.09;4455383;32;19985;-81
2022/12/11 04:54:31;;;;;;;;;;;;;;;1.67;83.89;96586.72;4456032;32;20021;-81
2022/12/11 04:56:56;;;;;;;;;;;;;;;2.10;81.88;96583.53;4454652;32;20265;-82
2022/12/11 04:59:22;;;;;;;;;;;;;;;1.98;82.13;96590.25;4454619;32;20317;-81
2022/12/11 05:01:47;;;;;;;;;;;;;;;1.95;81.42;96598.19;4454526;32;19965;-82
2022/12/11 05:04:12;;;;;;;;;;;;;;;1.95;81.70;96606.84;4455696;32;20310;-81
2022/12/11 05:06:37;;;;;;;;;;;;;;;1.46;84.45;96614.66;4455938;32;19991;-80
2022/12/11 05:09:03;;;;;;;;;;;;;;;1.56;83.64;96604.63;4455749;32;19965;-81
2022/12/11 05:11:28;;;;;;;;;;;;;;;1.89;83.58;96611.53;4454502;32;19991;-81
2022/12/11 05:13:53;;;;;;;;;;;;;;;1.75;82.79;96628.69;4455769;32;20002;-82
2022/12/11 05:16:19;;;;;;;;;;;;;;;1.60;83.71;96613.09;4455733;32;20227;-81
2022/12/11 05:18:44;;;;;;;;;;;;;;;1.74;83.52;96615.81;4454416;32;20410;-81
2022/12/11 05:21:11;;;;;;;;;;;;;;;1.79;83.21;96612.94;4455587;32;20001;-80
2022/12/11 05:23:37;;;;;;;;;;;;;;;1.55;83.56;96618.53;4455478;32;20039;-81
2022/12/11 05:26:04;;;;;;;;;;;;;;;1.62;84.51;96616.44;4454424;32;19993;-81
2022/12/11 05:28:30;;;;;;;;;;;;;;;1.86;83.27;96635.91;4454427;32;19973;-82
2022/12/11 05:30:56;;;;;;;;;;;;;;;2.02;81.56;96609.09;4454279;32;19984;-81
2022/12/11 05:33:21;;;;;;;;;;;;;;;2.17;81.43;96624.66;4454228;32;19989;-81
2022/12/11 05:35:47;;;;;;;;;;;;;;;2.14;80.40;96614.47;4454166;32;20009;-81
2022/12/11 05:38:12;;;;;;;;;;;;;;;1.90;82.12;96615.81;4454231;32;20313;-81
2022/12/11 05:40:37;;;;;;;;;;;;;;;1.76;82.20;96608.78;4455295;32;20328;-81
2022/12/11 05:43:03;;;;;;;;;;;;;;;1.75;82.31;96614.88;4455151;32;20021;-81
2022/12/11 05:45:28;;;;;;;;;;;;;;;1.75;82.08;96613.09;4455308;32;20309;-80
2022/12/11 05:47:53;;;;;;;;;;;;;;;1.96;81.48;96612.88;4455121;32;19981;-81
2022/12/11 05:50:18;;;;;;;;;;;;;;;1.55;83.10;96619.38;4455166;32;20297;-81
2022/12/11 05:52:44;;;;;;;;;;;;;;;1.59;82.66;96614.88;4454028;32;20012;-80
2022/12/11 05:55:09;;;;;;;;;;;;;;;1.59;82.66;96609.66;4453868;32;19981;-81
2022/12/11 05:57:34;;;;;;;;;;;;;;;1.50;83.17;96612.75;4453905;32;20017;-80
2022/12/11 05:59:59;;;;;;;;;;;;;;;1.48;83.50;96617.19;4454136;32;19965;-81
2022/12/11 06:02:25;;;;;;;;;;;;;;;1.81;82.88;96624.09;4454872;32;20245;-80
2022/12/11 06:04:50;;;;;;;;;;;;;;;1.96;81.26;96624.09;4455893;32;20250;-81
2022/12/11 06:07:15;;;;;;;;;;;;;;;1.91;81.12;96633.91;4455936;32;19995;-80
2022/12/11 06:09:40;;;;;;;;;;;;;;;1.60;83.01;96644.25;4455762;32;19997;-81
2022/12/11 06:12:06;;;;;;;;;;;;;;;1.52;82.75;96652.44;4457019;32;19977;-81
2022/12/11 06:14:31;;;;;;;;;;;;;;;1.83;81.99;96645.59;4457060;32;20325;-81
2022/12/11 06:16:56;;;;;;;;;;;;;;;1.54;82.73;96671.34;4457048;32;20045;-81
2022/12/11 06:19:21;;;;;;;;;;;;;;;1.53;82.19;96690.44;4456935;32;20010;-81
2022/12/11 06:21:47;;;;;;;;;;;;;;;1.60;82.61;96676.22;4456780;32;20336;-81
2022/12/11 06:24:13;;;;;;;;;;;;;;;1.17;83.07;96684.44;4457132;32;20019;-81
2022/12/11 06:26:38;;;;;;;;;;;;;;;1.61;82.43;96690.03;4455831;32;19992;-81
2022/12/11 06:29:03;;;;;;;;;;;;;;;1.34;82.25;96695.75;4455735;32;20264;-80
2022/12/11 06:31:28;;;;;;;;;;;;;;;1.56;81.83;96687.66;4456992;32;20004;-81
2022/12/11 06:33:54;;;;;;;;;;;;;;;1.44;82.39;96702.13;4457039;32;19977;-80
2022/12/11 06:36:20;;;;;;;;;;;;;;;1.69;81.96;96706.03;4455643;32;19973;-80
2022/12/11 06:38:46;;;;;;;;;;;;;;;1.63;82.07;96704.59;4455798;32;20018;-80
2022/12/11 06:41:11;;;;;;;;;;;;;;;1.69;81.18;96698.25;4455651;32;19981;-80
2022/12/11 06:43:37;;;;;;;;;;;;;;;1.36;82.59;96728.47;4456801;32;19969;-81
2022/12/11 06:46:04;;;;;;;;;;;;;;;1.28;82.91;96725.41;4456782;32;19977;-81
2022/12/11 06:48:29;;;;;;;;;;;;;;;1.44;82.69;96740.22;4455624;32;20007;-80
2022/12/11 06:50:54;;;;;;;;;;;;;;;1.42;83.26;96729.06;4455722;32;20036;-81
2022/12/11 06:53:19;;;;;;;;;;;;;;;1.32;84.88;96754.63;4456868;32;19985;-81
2022/12/11 06:55:45;;;;;;;;;;;;;;;1.45;81.87;96723.72;4456815;32;20367;-81
2022/12/11 06:58:10;;;;;;;;;;;;;;;1.20;84.04;96737.09;4455501;32;20281;-80
2022/12/11 07:00:36;;;;;;;;;;;;;;;1.37;82.71;96760.41;4456706;32;19985;-80
2022/12/11 07:03:01;;;;;;;;;;;;;;;1.17;82.83;96743.28;4456613;32;20015;-81
2022/12/11 07:05:26;;;;;;;;;;;;;;;1.11;84.10;96731.44;4456602;32;19977;-80
2022/12/11 07:07:52;;;;;;;;;;;;;;;1.25;82.45;96746.31;4456627;32;19980;-81
2022/12/11 07:10:17;;;;;;;;;;;;;;;1.42;82.23;96740.28;4456761;32;20355;-80
2022/12/11 07:12:43;;;;;;;;;;;;;;;1.38;82.93;96749.13;4456538;32;19974;-81
2022/12/11 07:15:08;;;;;;;;;;;;;;;1.76;80.50;96747.19;4456260;32;20018;-81
2022/12/11 07:17:33;;;;;;;;;;;;;;;1.87;80.09;96759.59;4456614;32;20253;-82
2022/12/11 07:19:59;;;;;;;;;;;;;;;1.55;80.31;96753.47;4456524;32;19991;-81
2022/12/11 07:22:24;;;;;;;;;;;;;;;1.50;81.13;96755.47;4456396;32;20017;-81
2022/12/11 07:24:49;;;;;;;;;;;;;;;1.77;79.56;96761.00;4456503;32;20001;-81
2022/12/11 07:27:15;;;;;;;;;;;;;;;2.12;78.90;96753.94;4442321;32;20315;-81
2022/12/11 07:29:40;;;;;;;;;;;;;;;1.94;78.27;96791.28;4456498;32;19996;-81
2022/12/11 07:32:05;;;;;;;;;;;;;;;1.56;79.63;96770.72;4456423;32;20365;-81
2022/12/11 07:34:31;;;;;;;;;;;;;;;1.70;78.11;96757.88;4456534;32;20249;-81
2022/12/11 07:36:56;;;;;;;;;;;;;;;2.15;76.76;96779.75;4455217;32;19973;-81
2022/12/11 07:39:22;;;;;;;;;;;;;;;1.88;76.42;96753.47;4455326;32;19981;-81
2022/12/11 07:41:47;;;;;;;;;;;;;;;1.87;77.59;96784.72;4455268;32;19981;-81
2022/12/11 07:44:12;;;;;;;;;;;;;;;1.86;77.25;96765.72;4456405;32;19972;-81
2022/12/11 07:46:38;;;;;;;;;;;;;;;1.98;77.31;96773.78;4455180;32;19961;-82
2022/12/11 07:49:04;;;;;;;;;;;;;;;1.71;78.32;96790.69;4456264;32;19984;-81
2022/12/11 07:51:30;;;;;;;;;;;;;;;2.05;76.87;96775.97;4456532;32;19984;-81
2022/12/11 07:53:56;;;;;;;;;;;;;;;1.85;77.23;96796.94;4456507;32;20248;-85
2022/12/11 07:56:22;;;;;;;;;;;;;;;2.00;75.95;96790.13;4456309;32;19961;-79
2022/12/11 07:58:47;;;;;;;;;;;;;;;1.88;76.09;96799.37;4455132;32;20000;-83
2022/12/11 08:01:16;;;;;;;;;;;;;;;1.91;76.14;96817.38;4456306;32;19969;-84
2022/12/11 08:03:41;;;;;;;;;;;;;;;1.88;76.41;96815.78;4456301;32;19985;-84
2022/12/11 08:06:07;;;;;;;;;;;;;;;1.50;78.01;96822.94;4455024;32;20017;-84
2022/12/11 08:08:32;;;;;;;;;;;;;;;1.92;76.79;96821.69;4455139;32;20288;-85
2022/12/11 08:11:01;;;;;;;;;;;;;;;1.81;76.73;96827.41;4456186;32;19986;-83
2022/12/11 08:13:26;;;;;;;;;;;;;;;1.64;77.54;96843.84;4455127;32;20000;-85
2022/12/11 08:15:51;;;;;;;;;;;;;;;1.83;75.78;96863.69;4454852;32;19989;-82
2022/12/11 08:18:16;;;;;;;;;;;;;;;1.76;76.79;96847.59;4456243;32;19985;-85
2022/12/11 08:20:42;;;;;;;;;;;;;;;1.95;75.34;96850.06;4456177;32;20018;-85
2022/12/11 08:23:07;;;;;;;;;;;;;;;1.93;75.05;96834.59;4455651;32;20034;-79
2022/12/11 08:25:32;;;;;;;;;;;;;;;2.06;75.09;96850.34;4439738;32;19989;-81
2022/12/11 08:27:58;;;;;;;;;;;;;;;2.37;74.21;96848.75;4455038;32;20055;-80
2022/12/11 08:30:23;;;;;;;;;;;;;;;2.03;74.04;96852.28;4455769;32;20247;-81
2022/12/11 08:32:48;;;;;;;;;;;;;;;2.01;74.79;96862.75;4456068;32;19977;-81
2022/12/11 08:35:14;;;;;;;;;;;;;;;1.94;74.66;96867.41;4441407;32;20019;-79
2022/12/11 08:37:39;;;;;;;;;;;;;;;1.91;75.00;96854.59;4440890;32;20015;-82
2022/12/11 08:40:05;;;;;;;;;;;;;;;1.91;75.34;96858.94;4455080;32;20301;-84
2022/12/11 08:42:30;;;;;;;;;;;;;;;1.85;75.56;96872.22;4455810;32;19981;-85
2022/12/11 08:44:55;;;;;;;;;;;;;;;2.00;74.98;96862.84;4455939;32;19968;-84
2022/12/11 08:47:21;;;;;;;;;;;;;;;1.91;75.20;96867.59;4455980;32;19999;-84
2022/12/11 08:49:47;;;;;;;;;;;;;;;1.78;75.26;96887.28;4455945;32;20033;-86
2022/12/11 08:52:12;;;;;;;;;;;;;;;2.07;74.72;96878.03;4455840;32;19969;-85
2022/12/11 08:54:37;;;;;;;;;;;;;;;1.81;74.97;96891.47;4455663;32;19982;-87
2022/12/11 08:57:02;;;;;;;;;;;;;;;1.77;75.07;96885.59;4455921;32;19985;-86
2022/12/11 08:59:28;;;;;;;;;;;;;;;2.02;74.50;96882.59;4456675;32;19985;-83
2022/12/11 09:01:53;;;;;;;;;;;;;;;2.06;74.58;96894.50;4461186;32;20039;-88
2022/12/11 09:04:18;;;;;;;;;;;;;;;2.05;73.89;96904.97;4455908;32;19985;-82
2022/12/11 09:06:44;;;;;;;;;;;;;;;1.94;74.44;96892.53;4444846;32;20061;-82
2022/12/11 09:09:09;;;;;;;;;;;;;;;2.05;74.33;96897.19;4457556;32;20007;-86
2022/12/11 09:11:35;;;;;;;;;;;;;;;2.19;73.60;96888.72;4467299;32;20004;-83
2022/12/11 09:14:01;;;;;;;;;;;;;;;2.46;72.31;96904.63;4467335;32;20579;-87
2022/12/11 09:16:26;;;;;;;;;;;;;;;2.29;72.96;96910.69;4450488;32;20127;-83
2022/12/11 09:18:52;;;;;;;;;;;;;;;2.32;72.04;96910.53;4460194;32;19996;-82
2022/12/11 09:21:19;;;;;;;;;;;;;;;2.01;73.26;96898.25;4457411;32;20419;-82
2022/12/11 09:23:44;;;;;;;;;;;;;;;2.13;72.80;96908.88;4443235;32;19969;-84
2022/12/11 09:26:11;;;;;;;;;;;;;;;1.87;73.45;96907.56;4443448;32;20058;-85
2022/12/11 09:28:36;;;;;;;;;;;;;;;2.08;72.69;96905.66;4459780;32;20000;-83
2022/12/11 09:31:06;;;;;;;;;;;;;;;2.21;72.77;96924.06;4442538;32;20009;-82
2022/12/11 09:33:32;;;;;;;;;;;;;;;1.75;73.70;96928.97;4443223;32;19984;-82
2022/12/11 09:35:58;;;;;;;;;;;;;;;2.14;72.88;96917.50;4461919;32;19993;-85
2022/12/11 09:38:23;;;;;;;;;;;;;;;1.94;72.97;96923.72;4455288;32;19977;-85
2022/12/11 09:40:48;;;;;;;;;;;;;;;1.81;73.43;96920.88;4456696;32;20007;-85
2022/12/11 09:43:28;;;;;;;;;;;;;;;2.22;72.42;96927.50;4471503;32;19975;-83
2022/12/11 09:45:55;;;;;;;;;;;;;;;1.98;72.88;96924.41;4456753;32;20044;-91
2022/12/11 09:48:21;;;;;;;;;;;;;;;2.03;72.22;96927.59;4457281;32;20040;-87
2022/12/11 09:50:46;;;;;;;;;;;;;;;2.12;72.47;96921.94;4436747;32;19973;-82
2022/12/11 09:53:13;;;;;;;;;;;;;;;2.30;71.39;96928.81;4429503;32;19987;-86
2022/12/11 09:55:55;;;;;;;;;;;;;;;2.43;71.43;96917.75;4471252;32;19988;-87
2022/12/11 09:58:27;;;;;;;;;;;;;;;2.28;71.33;96933.25;4453391;32;19981;-87
2022/12/11 10:00:54;;;;;;;;;;;;;;;2.34;70.76;96921.69;4447226;32;20000;-86
2022/12/11 10:03:32;;;;;;;;;;;;;;;2.71;70.31;96917.16;4447221;32;20030;-86
2022/12/11 10:06:01;;;;;;;;;;;;;;;2.33;70.75;96914.81;4471198;32;20057;-89
2022/12/11 10:08:46;;;;;;;;;;;;;;;2.31;70.19;96903.66;4457964;32;20048;-90
2022/12/11 10:11:20;;;;;;;;;;;;;;;2.33;70.36;96894.84;4406945;32;19994;-89
2022/12/11 10:13:46;;;;;;;;;;;;;;;2.34;70.24;96891.34;4407740;32;20267;-88
2022/12/11 10:16:29;;;;;;;;;;;;;;;2.41;70.74;96894.44;4393995;32;20010;-87
2022/12/11 10:18:55;;;;;;;;;;;;;;;2.35;70.86;96892.19;4407665;32;20002;-88
2022/12/11 10:21:20;;;;;;;;;;;;;;;2.42;70.12;96898.75;4394782;32;20013;-87
2022/12/11 10:24:05;;;;;;;;;;;;;;;2.21;70.35;96913.69;4408178;32;20009;-84
2022/12/11 10:26:30;;;;;;;;;;;;;;;2.26;70.50;96908.22;4408071;32;20101;-84
2022/12/11 10:28:59;;;;;;;;;;;;;;;2.66;69.74;96926.97;4408825;32;20018;-85
2022/12/11 10:31:35;;;;;;;;;;;;;;;1.97;72.06;96936.56;4395057;32;19974;-84
2022/12/11 10:34:01;;;;;;;;;;;;;;;2.36;71.00;96943.25;4395904;32;19970;-83
2022/12/11 10:36:28;;;;;;;;;;;;;;;2.27;71.43;96948.91;4383063;32;20036;-85
2022/12/11 10:38:53;;;;;;;;;;;;;;;1.89;72.86;96923.09;4395979;32;19990;-84
2022/12/11 10:41:20;;;;;;;;;;;;;;;2.21;71.53;96920.63;4395640;32;20038;-92
2022/12/11 10:43:47;;;;;;;;;;;;;;;2.25;70.95;96920.41;4396123;32;20009;-86
2022/12/11 10:46:19;;;;;;;;;;;;;;;2.34;70.04;96924.28;4408401;32;19994;-86
2022/12/11 10:48:45;;;;;;;;;;;;;;;2.01;72.07;96945.00;4452236;32;19969;-86
2022/12/11 10:51:11;;;;;;;;;;;;;;;2.05;71.93;96933.53;4457694;32;19980;-84
2022/12/11 10:53:36;;;;;;;;;;;;;;;2.17;71.77;96946.75;4472439;32;19984;-86
2022/12/11 10:56:01;;;;;;;;;;;;;;;2.38;70.55;96954.41;4443119;32;19992;-87
2022/12/11 10:58:27;;;;;;;;;;;;;;;2.14;70.78;96953.88;4442562;32;19989;-86
2022/12/11 11:01:06;;;;;;;;;;;;;;;2.03;71.48;96944.03;4442759;32;20028;-87
2022/12/11 11:03:32;;;;;;;;;;;;;;;2.30;70.84;96944.41;4442884;32;20072;-83
2022/12/11 11:06:17;;;;;;;;;;;;;;;2.17;71.42;96959.75;4456744;32;19973;-84
2022/12/11 11:08:43;;;;;;;;;;;;;;;2.14;70.82;96952.13;4442635;32;20000;-89
2022/12/11 11:11:19;;;;;;;;;;;;;;;2.13;70.86;96954.78;4456893;32;19997;-86
2022/12/11 11:13:44;;;;;;;;;;;;;;;2.02;71.63;96965.72;4442492;32;20028;-87
2022/12/11 11:16:11;;;;;;;;;;;;;;;1.92;71.44;96956.69;4456806;32;19983;-86
2022/12/11 11:18:36;;;;;;;;;;;;;;;2.15;71.47;96959.00;4442553;32;20063;-83
2022/12/11 11:21:02;;;;;;;;;;;;;;;1.83;72.64;96964.94;4429754;32;20234;-83
2022/12/11 11:23:27;;;;;;;;;;;;;;;2.02;71.33;96942.34;4456187;32;19969;-87
2022/12/11 11:25:52;;;;;;;;;;;;;;;2.24;70.50;96949.91;4442649;32;20012;-82
2022/12/11 11:28:20;;;;;;;;;;;;;;;2.53;69.71;96934.56;4456160;32;20078;-83
2022/12/11 11:30:53;;;;;;;;;;;;;;;2.41;69.46;96940.41;4456383;32;19968;-83
2022/12/11 11:33:19;;;;;;;;;;;;;;;2.64;69.08;96962.59;4456290;32;19985;-83
2022/12/11 11:35:57;;;;;;;;;;;;;;;2.07;70.97;96945.56;4456357;32;19988;-83
2022/12/11 11:38:24;;;;;;;;;;;;;;;2.33;69.76;96943.38;4442421;32;20124;-84
2022/12/11 11:41:04;;;;;;;;;;;;;;;2.44;69.33;96929.84;4449634;32;19992;-83
2022/12/11 11:43:35;;;;;;;;;;;;;;;2.44;68.94;96953.25;4453677;32;20448;-83
2022/12/11 11:46:21;;;;;;;;;;;;;;;2.44;69.61;96967.06;4465200;32;20361;-84
2022/12/11 11:48:52;;;;;;;;;;;;;;;2.51;68.93;96965.84;4470431;32;19992;-81
2022/12/11 11:51:22;;;;;;;;;;;;;;;2.28;70.17;96961.81;4454355;32;19981;-84
2022/12/11 11:53:48;;;;;;;;;;;;;;;2.65;68.60;96967.72;4453672;32;19988;-85
2022/12/11 11:56:30;;;;;;;;;;;;;;;2.21;70.72;96967.41;4441398;32;19985;-89
2022/12/11 11:58:58;;;;;;;;;;;;;;;2.78;69.00;96959.28;4455175;32;20324;-89
2022/12/11 12:01:24;;;;;;;;;;;;;;;2.23;70.24;96970.75;4455085;32;20329;-87
2022/12/11 12:03:49;;;;;;;;;;;;;;;2.51;69.09;96978.84;4440519;32;20018;-86
2022/12/11 12:06:14;;;;;;;;;;;;;;;2.33;70.07;96983.19;4441335;32;20021;-91
2022/12/11 12:08:41;;;;;;;;;;;;;;;2.54;69.08;96988.22;4456281;32;20329;-93
2022/12/11 12:11:42;;;;;;;;;;;;;;;2.79;68.32;96989.56;4453238;32;19973;-91
2022/12/11 12:14:10;;;;;;;;;;;;;;;2.77;68.01;96984.44;4402517;32;20096;-89
2022/12/11 12:16:35;;;;;;;;;;;;;;;2.69;68.71;96989.22;4382000;32;20062;-93
2022/12/11 12:19:02;;;;;;;;;;;;;;;2.59;68.59;96999.25;4403055;32;20002;-92
2022/12/11 12:21:33;;;;;;;;;;;;;;;2.60;68.51;96992.28;4385354;32;19993;-90
2022/12/11 12:24:01;;;;;;;;;;;;;;;2.67;68.00;96997.09;4398049;32;19998;-90
2022/12/11 12:26:28;;;;;;;;;;;;;;;2.51;68.58;96996.19;4404229;32;20009;-91
2022/12/11 12:29:02;;;;;;;;;;;;;;;2.27;69.50;96993.06;4407071;32;20002;-91
2022/12/11 12:31:27;;;;;;;;;;;;;;;2.36;69.55;97001.25;4398014;32;20023;-89
2022/12/11 12:33:58;;;;;;;;;;;;;;;2.51;68.73;96996.19;4407228;32;20342;-89
2022/12/11 12:36:29;;;;;;;;;;;;;;;2.97;67.54;96993.78;4382537;32;20540;-88
2022/12/11 12:39:01;;;;;;;;;;;;;;;2.36;68.75;96993.44;4392018;32;19990;-87
2022/12/11 12:41:35;;;;;;;;;;;;;;;2.36;68.89;96987.41;4384891;32;19994;-90
2022/12/11 12:44:03;;;;;;;;;;;;;;;2.30;69.18;96975.56;4385198;32;20029;-90
2022/12/11 12:46:58;;;;;;;;;;;;;;;2.12;69.38;96974.72;4404305;32;20053;-88
2022/12/11 12:49:23;;;;;;;;;;;;;;;2.25;69.29;96990.53;4434774;32;20352;-92
2022/12/11 12:51:49;;;;;;;;;;;;;;;2.60;67.96;96995.72;4455287;32;19981;-92
2022/12/11 12:54:15;;;;;;;;;;;;;;;2.44;67.95;97002.62;4448983;32;19969;-91
2022/12/11 12:56:42;;;;;;;;;;;;;;;2.42;68.06;97005.28;4453973;32;20038;-90
2022/12/11 12:59:17;;;;;;;;;;;;;;;2.29;68.31;97018.06;4445656;32;20003;-85
2022/12/11 13:01:45;;;;;;;;;;;;;;;2.48;68.04;97025.78;4448282;32;20312;-85
2022/12/11 13:04:25;;;;;;;;;;;;;;;2.50;67.99;97043.91;4466224;32;19995;-86
2022/12/11 13:06:50;;;;;;;;;;;;;;;2.78;67.08;97045.09;4443621;32;19989;-85